Impacts TAF Board INFO
FOR SITUATIONAL AWARENESS. NOT TO BE USED FOR FLIGHT PLANNING PURPOSES.
IDs:

KMCO - Orlando Intl, FL, US

Issued at 1732 UTC 27 Apr 2017
Updated at 2041 UTC 27 Apr 2017
Potential Impact None Slight Moderate High
Time1953Z 27/21Z 27/22Z 27/23Z 28/00Z 28/01Z 28/02Z 28/03Z 28/04Z 28/05Z 28/06Z 28/07Z 28/08Z 28/09Z>>
Type OBS PRVL PRVL PRVL PRVL PRVL PRVL PRVL PRVL PRVL PRVL PRVL PRVL PRVL
VIS 10 >6 >6 >6 >6 >6 >6 >6 >6 >6 >6 >6 >6 >6
CIG -- -- -- -- -- -- -- -- -- -- -- -- -- --
Cover FEW FEW FEW FEW FEW FEW FEW FEW FEW FEW FEW FEW FEW FEW
FltCat VFR VFR VFR VFR VFR VFR VFR VFR VFR VFR VFR VFR VFR VFR
WX -- -- -- -- -- -- -- -- -- -- -- -- -- --
WDir 190 170 170 130 130 130 130 160 160 160 160 160 160 160
WSpd 11 10 10 10 10 10 10 5 5 5 5 5 5 5
WGst -- 16 16 -- -- -- -- -- -- -- -- -- -- --

Raw TAF
KMCO 271732Z 2718/2818 17010G16KT P6SM FEW060
  FM272300 13010KT P6SM FEW050
  FM280300 16005KT P6SM FEW040
  FM281400 17010KT P6SM FEW040


Raw METAR
KMCO 271953Z 19011KT 10SM FEW065 34/16 A2988 RMK AO2 SLP118 T03390156
KMCO 271853Z 21010G17KT 10SM FEW060 33/16 A2992 RMK AO2 SLP129 T03280156
KMCO 271753Z 17006G16KT 10SM SCT055 32/16 A2994 RMK AO2 SLP135 T03220156 10328 20211 58015

METAR Board
Radar Display
Forecast Discussion

FOR SITUATIONAL AWARENESS. NOT TO BE USED FOR FLIGHT PLANNING PURPOSES.

Page loaded:  20:41 UTC  |   01:41 PM Pacific  |   02:41 PM Mountain  |   03:41 PM Central  |   04:41 PM Eastern

 

ADVISORIES

FORECASTS

FORECASTS

OBSERVATIONS

USER TOOLS

ABOUT US